createdAt,value
2019-01-21T00:04:00.003Z,169.20
2019-01-21T00:09:06.183Z,80.07
2019-01-21T00:14:10.384Z,74.57
2019-01-21T00:19:14.568Z,195.40
2019-01-21T00:24:18.782Z,88.33
2019-01-21T00:29:23.031Z,101.37
2019-01-21T00:34:27.247Z,98.73
2019-01-21T00:39:31.600Z,110.00
2019-01-21T00:44:35.800Z,88.13
2019-01-21T00:49:40.288Z,86.83
2019-01-21T00:54:44.485Z,73.53
2019-01-21T00:59:48.779Z,84.73
2019-01-21T01:04:52.996Z,179.20
2019-01-21T01:09:57.283Z,79.13
2019-01-21T01:15:01.488Z,83.43
2019-01-21T01:20:09.370Z,89.23
2019-01-21T01:25:13.736Z,72.67
2019-01-21T01:30:18.338Z,72.83
2019-01-21T01:35:22.546Z,79.80
2019-01-21T01:40:26.787Z,76.97
2019-01-21T01:45:31.093Z,87.60
2019-01-21T01:50:35.350Z,66.93
2019-01-21T01:55:39.537Z,73.40
2019-01-21T02:00:43.736Z,72.40
2019-01-21T02:05:48.090Z,65.23
2019-01-21T02:10:52.648Z,70.80
2019-01-21T02:15:56.903Z,70.27
2019-01-21T02:21:05.207Z,72.07
2019-01-21T02:26:23.979Z,65.30
2019-01-21T02:32:07.760Z,70.13
2019-01-21T02:37:53.317Z,68.90
2019-01-21T02:43:22.910Z,63.93
2019-01-21T02:48:52.351Z,62.70
2019-01-21T02:54:23.647Z,60.10
2019-01-21T03:00:21.151Z,66.60
2019-01-21T03:06:12.059Z,65.97
2019-01-21T03:11:38.648Z,62.10
2019-01-21T03:17:20.842Z,61.70
2019-01-21T03:22:58.143Z,64.10
2019-01-21T03:28:45.876Z,56.30
2019-01-21T03:34:14.145Z,61.87
2019-01-21T03:39:49.712Z,56.70
2019-01-21T03:45:40.904Z,56.97
2019-01-21T03:51:08.697Z,51.83
2019-01-21T03:56:24.186Z,51.50
2019-01-21T04:01:54.326Z,53.43
2019-01-21T04:07:10.235Z,44.83
2019-01-21T04:12:43.439Z,50.17
2019-01-21T04:18:47.216Z,54.23
2019-01-21T04:24:34.024Z,51.67
2019-01-21T04:30:33.354Z,54.43
2019-01-21T04:35:53.336Z,53.20
2019-01-21T04:41:16.037Z,53.73
2019-01-21T04:47:13.398Z,53.33
2019-01-21T04:52:44.863Z,51.37
2019-01-21T04:58:18.972Z,53.57
2019-01-21T05:04:10.687Z,50.07
2019-01-21T05:09:46.665Z,56.20
2019-01-21T05:15:30.076Z,47.13
2019-01-21T05:21:18.454Z,53.90
2019-01-21T05:27:11.658Z,51.10
2019-01-21T05:32:57.892Z,44.37
2019-01-21T05:38:17.661Z,58.20
2019-01-21T05:43:59.097Z,50.20
2019-01-21T05:49:51.165Z,49.00
2019-01-21T05:55:36.579Z,48.23
2019-01-21T06:01:34.287Z,50.43
2019-01-21T06:07:00.855Z,56.40
2019-01-21T06:12:33.643Z,45.17
2019-01-21T06:18:07.796Z,47.87
2019-01-21T06:24:20.334Z,47.40
2019-01-21T06:29:43.560Z,45.37
2019-01-21T06:35:21.244Z,47.03
2019-01-21T06:40:59.695Z,45.13
2019-01-21T06:46:30.188Z,43.90
2019-01-21T06:52:08.940Z,46.97
2019-01-21T06:57:39.239Z,45.20
2019-01-21T07:03:17.262Z,46.17
2019-01-21T07:08:50.847Z,44.10
2019-01-21T07:14:14.279Z,43.87
2019-01-21T07:19:29.610Z,46.87
2019-01-21T07:25:03.162Z,47.03
2019-01-21T07:30:49.279Z,40.67
2019-01-21T07:36:46.843Z,44.20
2019-01-21T07:42:32.841Z,39.83
2019-01-21T07:48:20.514Z,41.80
2019-01-21T07:54:08.534Z,40.10
2019-01-21T08:00:11.971Z,38.33
2019-01-21T08:06:09.555Z,36.93
2019-01-21T08:12:04.538Z,37.30
2019-01-21T08:17:42.723Z,35.20
2019-01-21T08:23:17.194Z,27.90
2019-01-21T08:28:51.462Z,27.60
2019-01-21T08:34:20.612Z,28.70
2019-01-21T08:39:48.765Z,27.30
2019-01-21T08:45:58.311Z,27.27
2019-01-21T08:51:14.979Z,29.63
2019-01-21T08:56:46.000Z,28.13
2019-01-21T09:02:36.120Z,26.17
2019-01-21T09:08:37.579Z,24.17
2019-01-21T09:14:23.919Z,24.60
2019-01-21T09:20:03.242Z,25.97
2019-01-21T09:25:35.484Z,22.73
2019-01-21T09:31:35.440Z,25.03
2019-01-21T09:36:51.900Z,27.33
2019-01-21T09:42:21.343Z,27.50
2019-01-21T09:47:23.993Z,27.40
2019-01-21T09:52:28.700Z,24.40
2019-01-21T09:57:33.459Z,27.33
2019-01-21T10:02:49.275Z,25.47
2019-01-21T10:08:26.953Z,23.73
2019-01-21T10:14:14.454Z,23.23
2019-01-21T10:20:02.679Z,23.13
2019-01-21T10:25:51.001Z,22.93
2019-01-21T10:31:15.852Z,20.60
2019-01-21T10:36:35.111Z,22.43
2019-01-21T10:41:53.175Z,19.37
2019-01-21T10:47:25.709Z,20.90
2019-01-21T10:53:26.587Z,18.17
2019-01-21T10:58:55.537Z,15.68
2019-01-21T11:04:33.823Z,17.40
2019-01-21T11:10:09.195Z,19.37
2019-01-21T11:15:25.048Z,20.37
2019-01-21T11:21:13.128Z,19.40
2019-01-21T11:26:53.052Z,19.87
2019-01-21T11:32:33.055Z,16.47
2019-01-21T11:38:17.524Z,16.50
2019-01-21T11:43:48.837Z,15.58
2019-01-21T11:49:55.431Z,15.38
2019-01-21T11:55:36.772Z,14.60
2019-01-21T12:01:24.047Z,15.50
2019-01-21T12:06:44.307Z,15.50
2019-01-21T12:12:19.125Z,15.50
2019-01-21T12:17:49.311Z,19.43
2019-01-21T12:23:33.526Z,17.37
2019-01-21T12:28:51.387Z,15.77
2019-01-21T12:34:06.071Z,18.73
2019-01-21T12:39:54.752Z,19.47
2019-01-21T12:45:45.908Z,17.30
2019-01-21T12:51:19.092Z,18.93
2019-01-21T12:57:03.559Z,18.20
2019-01-21T13:02:36.999Z,17.30
2019-01-21T13:08:22.307Z,18.27
2019-01-21T13:13:55.875Z,18.30
2019-01-21T13:19:42.931Z,19.67
2019-01-21T13:25:23.936Z,19.20
2019-01-21T13:31:12.051Z,20.73
2019-01-21T13:36:47.939Z,20.03
2019-01-21T13:42:16.956Z,22.50
2019-01-21T13:47:57.300Z,21.57
2019-01-21T13:53:57.723Z,20.93
2019-01-21T13:59:58.403Z,23.37
2019-01-21T14:05:12.977Z,20.70
2019-01-21T14:11:03.176Z,21.00
2019-01-21T14:16:42.431Z,22.03
2019-01-21T14:22:16.908Z,20.77
2019-01-21T14:28:07.913Z,22.60
2019-01-21T14:33:32.913Z,22.53
2019-01-21T14:39:17.038Z,24.77
2019-01-21T14:44:35.439Z,23.60
2019-01-21T14:50:02.724Z,24.87
2019-01-21T14:55:30.684Z,23.87
2019-01-21T15:01:09.961Z,26.67
2019-01-21T15:06:41.870Z,27.53
2019-01-21T15:12:27.119Z,24.93
2019-01-21T15:18:08.221Z,25.97
2019-01-21T15:23:41.182Z,28.27
2019-01-21T15:29:21.462Z,28.20
2019-01-21T15:35:09.384Z,28.37
2019-01-21T15:41:00.532Z,27.10
2019-01-21T15:46:46.473Z,28.97
2019-01-21T15:52:16.436Z,28.97
2019-01-21T15:57:43.711Z,30.63
2019-01-21T16:03:16.996Z,28.77
2019-01-21T16:09:02.346Z,27.40
2019-01-21T16:14:29.575Z,30.63
2019-01-21T16:20:00.781Z,30.93
2019-01-21T16:25:41.795Z,32.37
2019-01-21T16:31:14.850Z,29.73
2019-01-21T16:37:03.602Z,28.17
2019-01-21T16:42:15.894Z,28.97
2019-01-21T16:47:20.111Z,28.40
2019-01-21T16:52:24.368Z,33.13
2019-01-21T16:57:28.558Z,31.00
2019-01-21T17:02:32.821Z,28.80
2019-01-21T17:07:37.076Z,29.77
2019-01-21T17:12:41.298Z,30.93
2019-01-21T17:17:45.569Z,32.50
2019-01-21T17:22:49.830Z,29.47
2019-01-21T17:27:54.032Z,29.43
2019-01-21T17:32:58.233Z,31.50
2019-01-21T17:38:02.532Z,29.87
2019-01-21T17:43:06.882Z,32.17
2019-01-21T17:48:11.156Z,32.33
2019-01-21T17:53:15.378Z,33.10
2019-01-21T17:58:19.683Z,34.37
2019-01-21T18:03:24.062Z,34.47
2019-01-21T18:08:28.435Z,33.63
2019-01-21T18:13:32.724Z,33.77
2019-01-21T18:18:36.981Z,32.10
2019-01-21T18:23:41.811Z,31.70
2019-01-21T18:28:46.186Z,33.73
2019-01-21T18:33:50.528Z,32.23
2019-01-21T18:38:54.888Z,33.63
2019-01-21T18:43:59.084Z,32.23
2019-01-21T18:49:03.359Z,29.10
2019-01-21T18:54:07.748Z,32.73
2019-01-21T18:59:12.078Z,32.07
2019-01-21T19:04:15.758Z,32.53
2019-01-21T19:09:19.647Z,32.23
2019-01-21T19:14:23.329Z,35.40
2019-01-21T19:19:27.079Z,34.63
2019-01-21T19:24:30.787Z,31.10
2019-01-21T19:29:34.537Z,34.07
2019-01-21T19:34:38.312Z,32.47
2019-01-21T19:39:42.184Z,33.80
2019-01-21T19:44:45.916Z,34.00
2019-01-21T19:49:49.680Z,34.37
2019-01-21T19:54:53.470Z,34.10
2019-01-21T19:59:57.256Z,33.80
2019-01-21T20:05:01.104Z,30.10
2019-01-21T20:10:06.558Z,32.37
2019-01-21T20:15:11.118Z,32.57
2019-01-21T20:20:16.568Z,31.07
2019-01-21T20:25:20.315Z,33.53
2019-01-21T20:30:24.294Z,29.57
2019-01-21T20:35:28.128Z,32.37
2019-01-21T20:40:32.228Z,33.27
2019-01-21T20:45:35.894Z,28.73
2019-01-21T20:50:39.645Z,28.70
2019-01-21T20:55:43.410Z,27.60
2019-01-21T21:00:47.153Z,28.03
2019-01-21T21:05:50.990Z,30.50
2019-01-21T21:10:54.812Z,32.37
2019-01-21T21:15:58.689Z,28.87
2019-01-21T21:21:02.533Z,29.47
2019-01-21T21:26:06.430Z,28.63
2019-01-21T21:31:10.464Z,31.73
2019-01-21T21:36:14.335Z,26.97
2019-01-21T21:41:18.206Z,29.43
2019-01-21T21:46:22.060Z,30.00
2019-01-21T21:51:25.951Z,27.70
2019-01-21T21:56:29.837Z,26.90
2019-01-21T22:01:33.759Z,29.57
2019-01-21T22:06:37.593Z,28.90
2019-01-21T22:11:41.417Z,28.50
2019-01-21T22:16:45.305Z,29.33
2019-01-21T22:21:49.114Z,28.20
2019-01-21T22:26:53.070Z,28.37
2019-01-21T22:31:57.162Z,29.13
2019-01-21T22:37:02.231Z,28.23
2019-01-21T22:42:05.975Z,27.40
2019-01-21T22:47:09.967Z,28.17
2019-01-21T22:52:13.682Z,27.40
2019-01-21T22:57:17.929Z,25.67
2019-01-21T23:02:21.699Z,29.93
2019-01-21T23:07:25.363Z,30.23
2019-01-21T23:12:29.091Z,29.73
2019-01-21T23:17:32.783Z,28.93
2019-01-21T23:22:36.433Z,28.07
2019-01-21T23:27:40.090Z,33.57
2019-01-21T23:32:43.892Z,28.07
2019-01-21T23:37:47.825Z,31.80
2019-01-21T23:42:51.471Z,30.77
2019-01-21T23:47:55.205Z,31.33
2019-01-21T23:52:59.269Z,31.13
2019-01-21T23:58:03.018Z,30.67
